LFLN

Saint-Yan Airport

Saint-Yan, France
TAF LFLN 210800Z 2109/2118 VRB03KT CAVOK BECMG 2110/2112 13005KT PROB30 2115/2118 FEW070CB
Issued Valid From Valid To
Apr-21 @ 08:00 UTC
(2 hours ago)
Apr-21 @ 09:00 UTC
(42 minutes ago)
Apr-21 @ 18:00 UTC
(in 8 hours)
Apr-21 @ 09:00 to Apr-21 @ 10:00
TAF LFLN 210800Z 2109/2118 VRB03KT CAVOK
Wind Visibility Clouds Conditions
Variable at 3 knots 10,000+ meters
  • No significant clouds
Becoming Apr-21 @ 10:00 to Apr-21 @ 18:00
BECMG 2110/2112 13005KT
Wind Visibility Clouds Conditions
130° at 5 knots 10,000+ meters
  • No significant clouds
Probable  (Probability 30%) Apr-21 @ 15:00 to Apr-21 @ 18:00
PROB30 2115/2118 FEW070CB
Clouds
  • Few at 7,000' AGL
TAF LFLN 210800Z 2109/2118 VRB03KT CAVOK BECMG 2110/2112 13005KT PROB30 2115/2118 FEW070CB
Issued Apr-21 @ 08:00 UTC
(2 hours ago)
Valid From Apr-21 @ 09:00 UTC
(42 minutes ago)
Valid To Apr-21 @ 18:00 UTC
(in 8 hours)
Apr-21 @ 09:00 - Apr-21 @ 10:00
Wind Visibility
Variable at 3 knots 10,000+ meters
Clouds
  • No significant clouds
Conditions
Becoming Apr-21 @ 10:00 - Apr-21 @ 18:00
Wind Visibility
130° at 5 knots 10,000+ meters
Clouds
  • No significant clouds
Conditions
Probability 30% Probable Apr-21 @ 15:00 - Apr-21 @ 18:00
Clouds
  • Few at 7,000' AGL